| time (UTC) | temp F | wind direction | speed knots | gust knots | rain 1hr in | rain 24hr in | rain mn in | humidity % | barometer mb |
| 20260507192029 | 62 | 307 | 0.9 | 0.9 | 0.00 | 0.00 | 0.01 | 35 | 1013.8 |
| 20260507191029 | 63 | 333 | 1.7 | 1.7 | 0.00 | 0.00 | 0.01 | 37 | 1014.1 |
| 20260507190028 | 61 | 302 | 1.7 | 3.5 | 0.00 | 0.00 | 0.01 | 37 | 1014.2 |
| 20260507185028 | 61 | 297 | 8.7 | 9.6 | 0.00 | 0.00 | 0.01 | 35 | 1014.5 |
| 20260507184029 | 62 | 333 | 3.5 | 3.5 | 0.00 | 0.00 | 0.01 | 33 | 1014.6 |
| 20260507183029 | 62 | 269 | 3.5 | 5.2 | 0.00 | 0.00 | 0.01 | 33 | 1014.5 |
| 20260507182030 | 61 | 315 | 1.7 | 1.7 | 0.00 | 0.00 | 0.01 | 37 | 1014.4 |
| 20260507181030 | 61 | 315 | 0.9 | 1.7 | 0.00 | 0.00 | 0.01 | 33 | 1014.8 |
| 20260507180030 | 61 | 299 | 2.6 | 2.6 | 0.00 | 0.00 | 0.01 | 35 | 1014.7 |
| 20260507175028 | 61 | 332 | 1.7 | 2.6 | 0.00 | 0.00 | 0.01 | 35 | 1014.7 |
| 20260507174029 | 61 | 325 | 1.7 | 3.5 | 0.00 | 0.00 | 0.01 | 37 | 1014.6 |
| 20260507173028 | 61 | 284 | 3.5 | 3.5 | 0.00 | 0.00 | 0.01 | 34 | 1014.4 |
| 20260507172028 | 61 | 306 | 0.9 | 1.7 | 0.00 | 0.00 | 0.01 | 34 | 1014.7 |
| 20260507171030 | 61 | 312 | 1.7 | 2.6 | 0.00 | 0.00 | 0.01 | 36 | 1014.6 |
| 20260507170029 | 60 | 291 | 5.2 | 8.7 | 0.00 | 0.00 | 0.01 | 36 | 1014.8 |
| 20260507165027 | 61 | 337 | 1.7 | 2.6 | 0.00 | 0.00 | 0.01 | 38 | 1015.1 |
| 20260507164028 | 60 | 298 | 3.5 | 3.5 | 0.00 | 0.00 | 0.01 | 42 | 1015.3 |
| 20260507163028 | 60 | 296 | 3.5 | 5.2 | 0.00 | 0.00 | 0.01 | 41 | 1015.3 |
| 20260507162028 | 60 | 316 | 1.7 | 2.6 | 0.00 | 0.00 | 0.01 | 46 | 1015.5 |
| 20260507161029 | 60 | 311 | 3.5 | 5.2 | 0.00 | 0.00 | 0.01 | 47 | 1015.6 |
| 20260507160030 | 59 | 258 | 0.9 | 1.7 | 0.00 | 0.00 | 0.01 | 43 | 1015.7 |
| 20260507155026 | 60 | 281 | 3.5 | 5.2 | 0.00 | 0.00 | 0.01 | 52 | 1015.7 |
| 20260507154029 | 58 | 323 | 3.5 | 5.2 | 0.00 | 0.00 | 0.01 | 54 | 1015.6 |
| 20260507153030 | 61 | 311 | 1.7 | 2.6 | 0.00 | 0.00 | 0.01 | 49 | 1015.4 |
| 20260507152029 | 58 | 272 | 2.6 | 2.6 | 0.00 | 0.00 | 0.01 | 55 | 1015.8 |
| 20260507151028 | 58 | 276 | 2.6 | 2.6 | 0.00 | 0.00 | 0.01 | 56 | 1015.7 |
| 20260507150030 | 59 | 283 | 3.5 | 3.5 | 0.00 | 0.00 | 0.01 | 53 | 1015.9 |
| 20260507144110 | 57 | 359 | 1.7 | 1.7 | 0.00 | 0.00 | 0.01 | 60 | 1016.1 |
| 20260507143110 | 57 | 324 | 0.9 | 1.7 | 0.00 | 0.00 | 0.01 | 62 | 1016.1 |
| 20260507142109 | 59 | 327 | 0.9 | 0.9 | 0.00 | 0.00 | 0.01 | 62 | 1015.9 |
| 20260507141110 | 58 | 330 | 0.9 | 1.7 | 0.00 | 0.00 | 0.01 | 63 | 1015.8 |
| 20260507140110 | 57 | 315 | 0.0 | 0.9 | 0.00 | 0.00 | 0.01 | 61 | 1016.0 |
| 20260507135110 | 57 | 310 | 0.9 | 0.9 | 0.00 | 0.00 | 0.01 | 59 | 1016.1 |
| 20260507134111 | 59 | 291 | 0.9 | 1.7 | 0.00 | 0.00 | 0.01 | 62 | 1015.9 |
| 20260507133110 | 56 | 321 | 0.9 | 1.7 | 0.00 | 0.00 | 0.01 | 63 | 1015.8 |
| 20260507132109 | 56 | 326 | 0.9 | 1.7 | 0.00 | 0.00 | 0.01 | 66 | 1016.1 |
| 20260507131109 | 57 | 320 | 0.9 | 1.7 | 0.00 | 0.00 | 0.01 | 68 | 1016.3 |
| 20260507130111 | 56 | 19 | 0.9 | 1.7 | 0.00 | 0.00 | 0.01 | 68 | 1016.5 |
| 20260507125110 | 55 | 312 | 1.7 | 1.7 | 0.00 | 0.00 | 0.01 | 70 | 1016.3 |
| 20260507124110 | 54 | 328 | 1.7 | 1.7 | 0.00 | 0.00 | 0.01 | 73 | 1016.5 |
| 20260507123108 | 54 | 277 | 3.5 | 3.5 | 0.00 | 0.00 | 0.01 | 72 | 1016.5 |
| 20260507122110 | 54 | 317 | 0.0 | 0.9 | 0.00 | 0.00 | 0.01 | 77 | 1016.4 |
| 20260507121110 | 53 | 321 | 0.9 | 0.9 | 0.00 | 0.00 | 0.01 | 77 | 1016.5 |
| 20260507120110 | 52 | 283 | 1.7 | 2.6 | 0.00 | 0.00 | 0.01 | 79 | 1016.5 |
| 20260507115110 | 51 | 333 | 0.0 | 0.0 | 0.00 | 0.00 | 0.01 | 80 | 1016.4 |
| 20260507114110 | 51 | 331 | 0.0 | 0.0 | 0.00 | 0.00 | 0.01 | 82 | 1016.4 |
| 20260507113110 | 50 | 324 | 0.0 | 0.0 | 0.00 | 0.00 | 0.01 | 85 | 1016.4 |
| 20260507112110 | 49 | 322 | 0.0 | 0.0 | 0.00 | 0.00 | 0.01 | 89 | 1016.5 |
| 20260507111110 | 48 | 318 | 0.0 | 0.0 | 0.00 | 0.00 | 0.01 | 89 | 1016.1 |
| 20260507110110 | 48 | 329 | 0.0 | 0.0 | 0.00 | 0.00 | 0.01 | 93 | 1016.2 |
| 20260507105109 | 48 | 311 | 0.0 | 0.0 | 0.00 | 0.00 | 0.01 | 93 | 1016.0 |
| 20260507104112 | 48 | 319 | 0.0 | 0.0 | 0.00 | 0.00 | 0.01 | 93 | 1016.0 |
| 20260507103109 | 48 | 323 | 0.0 | 0.0 | 0.00 | 0.00 | 0.01 | 91 | 1015.6 |
| 20260507102109 | 48 | 326 | 0.0 | 0.0 | 0.00 | 0.00 | 0.01 | 91 | 1015.2 |
| 20260507101109 | 48 | 311 | 0.0 | 0.9 | 0.00 | 0.00 | 0.01 | 91 | 1015.5 |
| 20260507100107 | 48 | 317 | 0.0 | 0.9 | 0.00 | 0.00 | 0.01 | 91 | 1015.5 |
| 20260507095109 | 48 | 323 | 0.9 | 0.9 | 0.00 | 0.00 | 0.01 | 91 | 1015.4 |
| 20260507094110 | 48 | 323 | 0.0 | 0.0 | 0.00 | 0.00 | 0.01 | 90 | 1015.5 |
| 20260507093109 | 48 | 310 | 1.7 | 1.7 | 0.00 | 0.00 | 0.01 | 90 | 1015.6 |
| 20260507092109 | 48 | 320 | 0.9 | 0.9 | 0.00 | 0.00 | 0.01 | 91 | 1016.0 |
| 20260507091109 | 48 | 320 | 0.0 | 0.9 | 0.00 | 0.00 | 0.01 | 91 | 1015.9 |
| 20260507090107 | 48 | 314 | 0.0 | 0.9 | 0.00 | 0.00 | 0.01 | 93 | 1016.0 |
| 20260507085110 | 48 | 318 | 0.0 | 0.0 | 0.00 | 0.00 | 0.01 | 93 | 1016.0 |
| 20260507084110 | 48 | 308 | 0.0 | 0.9 | 0.00 | 0.00 | 0.01 | 91 | 1015.3 |
| 20260507083112 | 48 | 323 | 0.0 | 0.9 | 0.00 | 0.00 | 0.01 | 92 | 1015.9 |
| 20260507082110 | 48 | 319 | 0.9 | 0.9 | 0.00 | 0.00 | 0.01 | 92 | 1015.4 |
| 20260507081118 | 49 | 314 | 0.9 | 0.9 | 0.00 | 0.00 | 0.01 | 95 | 1015.7 |
| 20260507080110 | 49 | 306 | 0.9 | 0.9 | 0.00 | 0.00 | 0.01 | 95 | 1015.5 |
| 20260507075108 | 50 | 321 | 0.0 | 0.0 | 0.00 | 0.00 | 0.01 | 95 | 1015.2 |
| 20260507074109 | 50 | 318 | 0.0 | 0.0 | 0.07 | 0.00 | 0.01 | 92 | 1015.6 |
| 20260507073109 | 51 | 310 | 0.9 | 0.9 | 0.00 | 0.00 | 0.00 | 92 | 1015.8 |
| 20260507072110 | 51 | 320 | 0.0 | 0.0 | 0.00 | 0.00 | 0.00 | 91 | 1015.3 |
| 20260507071110 | 51 | 321 | 0.9 | 0.9 | 0.00 | 0.00 | 0.00 | 92 | 1014.8 |
| 20260507070110 | 51 | 319 | 0.0 | 0.9 | 0.00 | 0.00 | 0.00 | 94 | 1014.7 |
| 20260507065110 | 51 | 314 | 0.9 | 0.9 | 0.00 | 0.00 | 0.00 | 95 | 1014.6 |
| 20260507064109 | 52 | 322 | 0.0 | 0.0 | 0.00 | 0.00 | 0.00 | 96 | 1014.7 |
| 20260507063109 | 51 | 311 | 0.9 | 0.9 | 0.00 | 0.00 | 0.00 | 96 | 1014.9 |
| 20260507062110 | 52 | 321 | 0.0 | 0.0 | 0.00 | 0.00 | 0.00 | 97 | 1014.9 |
| 20260507061109 | 52 | 323 | 0.0 | 0.0 | 0.00 | 0.00 | 0.00 | 97 | 1014.9 |
| 20260507060111 | 53 | 322 | 0.0 | 0.0 | 0.00 | 0.00 | 0.00 | 98 | 1015.0 |
| 20260507055110 | 53 | 324 | 0.0 | 0.0 | 0.00 | 0.00 | 0.00 | 98 | 1014.7 |
| 20260507054109 | 53 | 316 | 0.0 | 0.0 | 0.00 | 0.00 | 0.00 | 98 | 1015.1 |
| 20260507053110 | 53 | 326 | 0.9 | 0.9 | 0.00 | 0.00 | 0.00 | 98 | 1015.4 |
| 20260507052110 | 53 | 315 | 0.9 | 0.9 | 0.00 | 0.00 | 0.00 | 98 | 1015.1 |
| 20260507051109 | 54 | 321 | 0.0 | 0.9 | 0.00 | 0.00 | 0.00 | 98 | 1015.3 |
| 20260507050110 | 54 | 310 | 0.9 | 1.7 | 0.00 | 0.00 | 0.00 | 98 | 1015.4 |
| 20260507045110 | 54 | 325 | 0.0 | 0.9 | 0.00 | 0.00 | 0.00 | 98 | 1015.1 |
| 20260507044107 | 55 | 327 | 0.9 | 0.9 | 0.00 | 0.00 | 0.00 | 98 | 1015.1 |
| 20260507043109 | 55 | 318 | 0.9 | 0.9 | 0.00 | 0.00 | 0.00 | 98 | 1015.0 |
| 20260507042109 | 55 | 322 | 0.0 | 0.0 | 0.00 | 0.00 | 0.00 | 97 | 1014.9 |
| 20260507041109 | 56 | 310 | 1.7 | 1.7 | 0.00 | 0.00 | 0.00 | 97 | 1015.0 |
| 20260507040109 | 57 | 321 | 0.0 | 0.9 | 0.00 | 0.00 | 0.21 | 98 | 1015.1 |
| 20260507035110 | 57 | 313 | 0.9 | 0.9 | 0.05 | 0.00 | 0.21 | 97 | 1015.0 |
| 20260507034109 | 57 | 319 | 0.9 | 0.9 | 0.00 | 0.00 | 0.20 | 97 | 1015.0 |
| 20260507033112 | 57 | 0 | 0.0 | 0.0 | 0.00 | 0.00 | 0.20 | 98 | 1014.5 |
| 20260507032111 | 58 | 317 | 0.0 | 0.0 | 0.00 | 0.00 | 0.20 | 99 | 1014.4 |
| 20260507031110 | 58 | 332 | 1.7 | 1.7 | 0.00 | 0.00 | 0.20 | 99 | 1014.1 |
| 20260507030110 | 59 | 321 | 0.9 | 0.9 | 0.00 | 0.00 | 0.20 | 99 | 1013.9 |
| 20260507025109 | 59 | 326 | 0.0 | 0.0 | 0.00 | 0.00 | 0.20 | 99 | 1014.1 |
| 20260507024109 | 59 | 316 | 0.0 | 0.0 | 0.07 | 0.00 | 0.20 | 99 | 1014.0 |
| 20260507023110 | 59 | 345 | 0.0 | 0.9 | 0.00 | 0.00 | 0.19 | 99 | 1014.4 |
| 20260507022109 | 59 | 320 | 0.0 | 0.9 | 0.00 | 0.00 | 0.19 | 99 | 1014.0 |
| 20260507021109 | 59 | 323 | 0.0 | 0.0 | 0.00 | 0.00 | 0.19 | 99 | 1013.7 |
| 20260507020110 | 59 | 326 | 0.0 | 0.0 | 0.00 | 0.00 | 0.19 | 99 | 1013.6 |
| 20260507015110 | 59 | 321 | 0.0 | 0.0 | 0.00 | 0.00 | 0.19 | 99 | 1013.8 |
| 20260507014110 | 59 | 326 | 0.0 | 0.0 | 0.00 | 0.00 | 0.19 | 99 | 1013.9 |
| 20260507013110 | 59 | 331 | 0.0 | 0.0 | 0.00 | 0.00 | 0.19 | 99 | 1013.9 |
| 20260507012109 | 59 | 330 | 0.0 | 0.0 | 0.00 | 0.00 | 0.19 | 99 | 1013.8 |
| 20260507011110 | 59 | 322 | 0.0 | 0.0 | 0.00 | 0.00 | 0.19 | 99 | 1013.7 |
| 20260507010110 | 59 | 325 | 0.0 | 0.0 | 0.00 | 0.00 | 0.19 | 99 | 1014.1 |
| 20260507005110 | 59 | 322 | 0.0 | 0.0 | 0.00 | 0.00 | 0.19 | 99 | 1013.9 |
| 20260507004110 | 59 | 323 | 0.0 | 0.0 | 0.00 | 0.00 | 0.19 | 99 | 1013.8 |
| 20260507003110 | 59 | 350 | 0.0 | 0.9 | 0.00 | 0.00 | 0.19 | 99 | 1013.7 |
| 20260507002110 | 59 | 318 | 0.0 | 0.9 | 0.00 | 0.00 | 0.19 | 99 | 1013.7 |
| 20260507001111 | 59 | 299 | 0.9 | 0.9 | 0.00 | 0.00 | 0.19 | 99 | 1013.6 |
| 20260507000109 | 59 | 328 | 0.0 | 0.0 | 0.00 | 0.00 | 0.19 | 99 | 1013.7 |
| 20260506235111 | 59 | 323 | 0.0 | 0.0 | 0.00 | 0.00 | 0.19 | 99 | 1013.6 |
| 20260506234110 | 59 | 324 | 0.0 | 0.0 | 0.00 | 0.00 | 0.19 | 99 | 1013.7 |
| 20260506233110 | 59 | 347 | 0.9 | 0.9 | 0.00 | 0.00 | 0.19 | 99 | 1013.4 |
| 20260506232108 | 59 | 325 | 0.0 | 0.0 | 0.00 | 0.00 | 0.19 | 99 | 1013.4 |
| 20260506231110 | 59 | 322 | 0.0 | 0.0 | 0.05 | 0.00 | 0.19 | 99 | 1013.3 |
| 20260506230111 | 59 | 314 | 0.0 | 0.0 | 0.19 | 0.00 | 0.18 | 99 | 1013.6 |
| 20260506225110 | 59 | 310 | 0.0 | 0.0 | 0.00 | 0.00 | 0.15 | 99 | 1013.5 |
| 20260506224110 | 59 | 328 | 0.0 | 0.0 | 0.05 | 0.00 | 0.15 | 99 | 1013.6 |
| 20260506223109 | 59 | 323 | 0.0 | 0.0 | 0.07 | 0.00 | 0.00 | 98 | 1013.6 |
| 20260506222109 | 59 | 325 | 0.0 | 0.0 | 0.07 | 0.00 | 0.13 | 98 | 1013.8 |
| 20260506221109 | 59 | 328 | 0.9 | 0.9 | 0.12 | 0.00 | 0.12 | 98 | 1014.1 |
| 20260506220110 | 60 | 316 | 0.0 | 0.0 | 0.12 | 0.00 | 0.10 | 97 | 1013.8 |
| 20260506215110 | 60 | 322 | 0.0 | 0.0 | 0.05 | 0.00 | 0.08 | 96 | 1013.9 |
| 20260506214111 | 60 | 303 | 1.7 | 1.7 | 0.00 | 0.00 | 0.00 | 96 | 1014.0 |
| 20260506213110 | 60 | 341 | 0.0 | 0.0 | 0.00 | 0.00 | 0.00 | 96 | 1014.1 |
| 20260506212110 | 60 | 313 | 0.0 | 0.0 | 0.00 | 0.00 | 0.00 | 96 | 1014.3 |
| 20260506211111 | 60 | 333 | 0.9 | 0.9 | 0.00 | 0.00 | 0.00 | 96 | 1014.3 |
| 20260506210110 | 60 | 326 | 0.0 | 0.0 | 0.00 | 0.00 | 0.00 | 96 | 1014.2 |
| 20260506205116 | 60 | 308 | 0.0 | 0.9 | 0.07 | 0.00 | 0.00 | 96 | 1014.6 |
| 20260506204109 | 60 | 317 | 0.0 | 0.0 | 0.07 | 0.00 | 0.00 | 96 | 1014.5 |
| 20260506203110 | 61 | 325 | 0.9 | 0.9 | 0.00 | 0.00 | 0.06 | 95 | 1014.6 |
| 20260506202109 | 61 | 323 | 0.0 | 0.0 | 0.05 | 0.00 | 0.06 | 95 | 1014.4 |
| 20260506201109 | 62 | 330 | 0.0 | 0.0 | 0.07 | 0.00 | 0.05 | 94 | 1014.6 |
| 20260506200110 | 62 | 319 | 0.0 | 0.0 | 0.00 | 0.00 | 0.04 | 93 | 1014.6 |
| 20260506195109 | 62 | 333 | 0.0 | 0.9 | 0.00 | 0.00 | 0.04 | 92 | 1014.8 |
| 20260506194111 | 63 | 325 | 0.0 | 0.0 | 0.05 | 0.00 | 0.04 | 93 | 1014.9 |
| 20260506193109 | 63 | 331 | 0.0 | 0.0 | 0.00 | 0.00 | 0.03 | 93 | 1014.7 |